Decoded Metar for LFMN (NICE in FRANCE) (IATA:NCE) | Meteo·Mobile Aviation Weather
aviador You're here:

LFMN Decoded Metar

NICE in FRANCE
Report Time2019-01-19 06:00:00
UTC Time2019-01-19 06:08:43
Flight Rules vfr VFR
Wind340° at 09 kt
W.Decomp.*RWY 04: 4.4 kt HW 7.9 kt LCW
W.Rank340° ranks 2
Current wind is above 340° avg. (7.2)
Visibility9999 m
Phenomena:N/A
Clouds:Few 053 Hf
Broken 170 Hf
Expected CloudBase > 2,800 ft AGL from Temp-Dew spread
Ceiling17,000 ft
Temp06°C (ISA -9)
Dew Point-1°C (61% RH)
AAT0.6°C
QNH1013 hPa
Density Alt-965 ft
Elevation33 ft
Report Wrong Elevation
Raw Report
METAR LFMN 190600Z 34009KT 9999 FEW053 BKN170 06/M01 Q1013 NOSIG=

Extra information for LFMN:More info

Metar Taf Metar & Taf Last 4 Metars F.Rules Stats Wind Profile Meteogram Temp Stats Airport Information Weather charts Add Link Nearby VenuesMetar ALERT Operation Metar Decoded Social comments